Avon, CO (81620)

9:55 AM MDT on August 04, 2015 (GMT -0600)
Beaver Creek | | Change Station
CLOSE
Current Station
Personal Weather Station
Location: Avon, CO
Elevation: 8156 ft
Nearby Weather Stations

Elev 8156 ft 39.61 °N, 106.52 °W | Updated 9 minutes ago

Clear
Clear
59.5 °F
Feels Like 59.5 °F
N
5.8
Wind Variable Wind from NNE

Today
High -- | Low -- °F
--% Chance of Precip.
Yesterday
High -- | Low -- °F
Precip. -- in
6:07 AM 8:15 PM
Waning Gibbous, 76% visible
Pressure 30.26 in
Visibility 10.0 miles
Clouds Few 8000 ft
Dew Point 47 °F
Humidity 63%
Rainfall 0.07 in
Snow Depth Not available.
UV 5 out of 12
Pollen 7.60 out of 12
Air Quality Not available.
Flu Activity Not available.
METAR KEGE 041550Z 26009KT 10SM FEW080 20/07 A3026

More Conditions Fewer Conditions

Pressure 30.26 in
Visibility 10.0 miles
Clouds Few 8000 ft
Dew Point 47 °F
Humidity 63%
Rainfall 0.07 in
Snow Depth Not available.
UV 5 out of 12
Pollen 7.60 out of 12
Air Quality Not available.
Flu Activity Not available.
METAR KEGE 041550Z 26009KT 10SM FEW080 20/07 A3026

More Conditions Fewer Conditions

10-Day Weather Forecast

×

Almanac

Astronomy

Aug. 04, 2015 Rise Set
Actual Time
Civil Twilight
Nautical Twilight
Astronomical Twilight
Moon
Length of Visible Light
Length of Day
Tomorrow will be .
, % of the Moon is Illuminated

Today's Extremes

State Highs State Lows

Community

WunderPhotos

Upload Photos

1,843,909 photos uploaded!

WunderBlogs® & News

Nearby

Air Quality

  Air Quality AQ Index Pollutant
Not available.

Snow Depth

Station Depth Elevation

Earthquake Activity

City Distance Mag. Time & Date
Minimum magnitude displayed is 2.5.

Coastal Water Temperatures

Place Temperature

Stations

Nearby Weather Stations

Station Location Temp. Windchill Dew Point Humidity Wind Precip. Elev Updated Type